Time;durP1;ratioP1;P1;durP2;ratioP2;P2;SDS_P1;SDS_P2;PMS_P1;PMS_P2;Temp;Humidity;BMP_temperature;BMP_pressure;BME280_temperature;BME280_humidity;BME280_pressure;Samples;Min_cycle;Max_cycle;Signal;HPM_P1;HPM_P2
2021/11/15 00:00:46;;;;;;;65.00;24.75;;;7.90;99.90;;;;;;5029168;28;20077;-82
2021/11/15 00:03:13;;;;;;;60.00;24.60;;;7.90;99.90;;;;;;5028779;28;20038;-82
2021/11/15 00:05:39;;;;;;;64.03;27.77;;;7.90;99.90;;;;;;5031952;28;20068;-82
2021/11/15 00:08:05;;;;;;;72.57;28.50;;;7.90;99.90;;;;;;5029912;28;20162;-83
2021/11/15 00:10:31;;;;;;;68.78;29.23;;;7.80;99.90;;;;;;5028301;28;20744;-82
2021/11/15 00:12:57;;;;;;;69.72;28.67;;;7.80;99.90;;;;;;5026124;28;20235;-82
2021/11/15 00:15:22;;;;;;;69.32;29.50;;;7.80;99.90;;;;;;5035005;28;20115;-83
2021/11/15 00:17:49;;;;;;;75.18;29.98;;;7.70;99.90;;;;;;5020044;28;20042;-82
2021/11/15 00:20:16;;;;;;;73.35;30.63;;;7.60;99.90;;;;;;5019859;28;20072;-82
2021/11/15 00:22:42;;;;;;;71.20;30.42;;;7.60;99.90;;;;;;5029082;28;20029;-83
2021/11/15 00:25:09;;;;;;;72.32;30.67;;;7.60;99.90;;;;;;5032088;28;20056;-83
2021/11/15 00:27:34;;;;;;;83.80;31.13;;;7.60;99.90;;;;;;5031372;28;20040;-82
2021/11/15 00:30:00;;;;;;;72.28;29.63;;;7.50;99.90;;;;;;5031247;28;20041;-82
2021/11/15 00:32:27;;;;;;;70.55;28.60;;;7.50;99.90;;;;;;5018912;28;20474;-82
2021/11/15 00:34:52;;;;;;;72.90;30.10;;;7.50;99.90;;;;;;5015819;28;20030;-83
2021/11/15 00:37:18;;;;;;;74.85;30.23;;;7.50;99.90;;;;;;5018007;28;20037;-83
2021/11/15 00:39:44;;;;;;;77.43;30.20;;;7.50;99.90;;;;;;5023694;28;20100;-82
2021/11/15 00:42:10;;;;;;;69.93;31.02;;;7.50;99.90;;;;;;5022227;28;20033;-81
2021/11/15 00:44:35;;;;;;;80.10;30.23;;;7.50;99.90;;;;;;5024119;28;20406;-81
2021/11/15 00:47:01;;;;;;;73.68;29.27;;;7.60;99.90;;;;;;5025542;28;20030;-81
2021/11/15 00:49:27;;;;;;;70.35;30.35;;;7.60;99.90;;;;;;5018638;28;20061;-81
2021/11/15 00:51:52;;;;;;;83.50;31.40;;;7.60;99.90;;;;;;5021433;28;20044;-81
2021/11/15 00:54:18;;;;;;;80.72;29.90;;;7.50;99.90;;;;;;5031586;28;20022;-81
2021/11/15 00:56:43;;;;;;;82.80;31.58;;;7.50;99.90;;;;;;5032138;28;20463;-81
2021/11/15 00:59:09;;;;;;;83.55;31.50;;;7.50;99.90;;;;;;5030057;28;20441;-81
2021/11/15 01:01:34;;;;;;;79.10;30.77;;;7.50;99.90;;;;;;5018930;28;20033;-82
2021/11/15 01:04:00;;;;;;;79.95;31.42;;;7.50;99.90;;;;;;5024071;28;20071;-81
2021/11/15 01:06:26;;;;;;;74.88;30.88;;;7.50;99.90;;;;;;5027026;28;20527;-81
2021/11/15 01:08:51;;;;;;;82.07;31.73;;;7.50;99.90;;;;;;5020459;28;20123;-81
2021/11/15 01:11:17;;;;;;;74.30;32.40;;;7.40;99.90;;;;;;5029150;28;20041;-81
2021/11/15 01:13:43;;;;;;;83.05;34.80;;;7.40;99.90;;;;;;5025485;28;20060;-82
2021/11/15 01:16:09;;;;;;;75.47;31.02;;;7.40;99.90;;;;;;5030489;28;20053;-82
2021/11/15 01:18:35;;;;;;;75.72;32.20;;;7.40;99.90;;;;;;5027601;28;21924;-81
2021/11/15 01:21:01;;;;;;;69.85;29.23;;;7.40;99.90;;;;;;5027060;28;20574;-83
2021/11/15 01:23:27;;;;;;;78.55;31.27;;;7.40;99.90;;;;;;5024590;28;20522;-82
2021/11/15 01:25:52;;;;;;;79.85;34.05;;;7.40;99.90;;;;;;5012565;28;20034;-81
2021/11/15 01:28:18;;;;;;;75.43;31.33;;;7.40;99.90;;;;;;5031078;28;20101;-82
2021/11/15 01:30:43;;;;;;;75.20;33.53;;;7.40;99.90;;;;;;5018277;28;20589;-82
2021/11/15 01:33:09;;;;;;;72.75;32.10;;;7.40;99.90;;;;;;5027153;28;20040;-83
2021/11/15 01:35:35;;;;;;;78.78;31.92;;;7.40;99.90;;;;;;5028714;28;20025;-82
2021/11/15 01:38:01;;;;;;;78.18;33.03;;;7.40;99.90;;;;;;5012150;28;20037;-81
2021/11/15 01:40:30;;;;;;;64.55;29.98;;;7.40;99.90;;;;;;5023907;28;20037;-81
2021/11/15 01:42:57;;;;;;;70.00;32.05;;;7.40;99.90;;;;;;5018086;28;20386;-82
2021/11/15 01:45:24;;;;;;;77.65;32.40;;;7.40;99.90;;;;;;5021166;28;20029;-81
2021/11/15 01:47:52;;;;;;;69.25;31.80;;;7.30;99.90;;;;;;5023270;28;20025;-81
2021/11/15 01:50:18;;;;;;;75.93;32.47;;;7.30;99.90;;;;;;5021288;28;20044;-82
2021/11/15 01:52:45;;;;;;;70.65;30.50;;;7.30;99.90;;;;;;5020953;28;20087;-82
2021/11/15 01:55:11;;;;;;;64.13;30.17;;;7.20;99.90;;;;;;5022028;28;20036;-81
2021/11/15 01:57:36;;;;;;;63.58;31.48;;;7.20;99.90;;;;;;5030514;28;20055;-82
2021/11/15 02:00:09;;;;;;;64.18;32.03;;;7.20;99.90;;;;;;5042842;28;20037;-82
2021/11/15 02:02:35;;;;;;;73.28;32.55;;;7.20;99.90;;;;;;5048978;28;20025;-84
2021/11/15 02:05:00;;;;;;;69.70;31.90;;;7.10;99.90;;;;;;5031503;28;20064;-83
2021/11/15 02:07:26;;;;;;;65.05;30.65;;;7.10;99.90;;;;;;5030089;28;20048;-82
2021/11/15 02:09:52;;;;;;;69.55;31.83;;;7.10;99.90;;;;;;5020954;28;20037;-83
2021/11/15 02:12:18;;;;;;;66.57;32.75;;;7.20;99.90;;;;;;5014295;28;20030;-82
2021/11/15 02:14:43;;;;;;;63.53;30.38;;;7.20;99.90;;;;;;5025359;28;20104;-82
2021/11/15 02:17:09;;;;;;;71.90;33.17;;;7.20;99.90;;;;;;5024910;28;20438;-83
2021/11/15 02:19:35;;;;;;;77.22;34.72;;;7.20;99.90;;;;;;5019280;28;20049;-83
2021/11/15 02:22:00;;;;;;;67.47;33.75;;;7.30;99.90;;;;;;5010720;28;20579;-83
2021/11/15 02:24:26;;;;;;;77.13;35.08;;;7.30;99.90;;;;;;5015806;28;20628;-83
2021/11/15 02:26:52;;;;;;;78.47;34.33;;;7.30;99.90;;;;;;5024918;28;20029;-82
2021/11/15 02:29:19;;;;;;;77.80;35.78;;;7.20;99.90;;;;;;5028935;28;20103;-82
2021/11/15 02:31:44;;;;;;;84.55;35.28;;;7.20;99.90;;;;;;5014301;28;20446;-81
2021/11/15 02:34:11;;;;;;;73.45;33.70;;;7.20;99.90;;;;;;5016117;28;20034;-81
2021/11/15 02:36:38;;;;;;;91.47;36.90;;;7.20;99.90;;;;;;5022010;28;20029;-81
2021/11/15 02:39:05;;;;;;;74.20;33.40;;;7.20;99.90;;;;;;5027253;28;20117;-81
2021/11/15 02:41:30;;;;;;;71.43;31.88;;;7.20;99.90;;;;;;5022069;28;20032;-81
2021/11/15 02:43:56;;;;;;;69.10;33.55;;;7.20;99.90;;;;;;5022524;28;20112;-81
2021/11/15 02:46:21;;;;;;;68.18;34.05;;;7.20;99.90;;;;;;5011911;28;20025;-81
2021/11/15 02:48:47;;;;;;;80.82;34.47;;;7.20;99.90;;;;;;5022413;28;20087;-81
2021/11/15 02:51:13;;;;;;;75.13;33.35;;;7.20;99.90;;;;;;5018268;28;20038;-81
2021/11/15 02:53:39;;;;;;;83.82;36.50;;;7.20;99.90;;;;;;5026449;28;20025;-81
2021/11/15 02:56:05;;;;;;;75.45;35.25;;;7.10;99.90;;;;;;5024170;28;20087;-81
2021/11/15 02:58:31;;;;;;;74.18;34.22;;;7.10;99.90;;;;;;5023640;28;20038;-82
2021/11/15 03:01:13;;;;;;;74.28;33.75;;;7.00;99.90;;;;;;5028079;28;20421;-81
2021/11/15 03:03:40;;;;;;;53.40;25.45;;;7.10;99.90;;;;;;5024146;28;20033;-82
2021/11/15 03:06:06;;;;;;;72.55;34.65;;;7.10;99.90;;;;;;5020761;28;20148;-81
2021/11/15 03:08:31;;;;;;;73.60;32.88;;;7.10;99.90;;;;;;5049396;28;20191;-81
2021/11/15 03:10:59;;;;;;;75.03;33.72;;;7.10;99.90;;;;;;5023365;28;20045;-80
2021/11/15 03:13:28;;;;;;;80.68;34.95;;;7.00;99.90;;;;;;5033705;28;20168;-81
2021/11/15 03:15:54;;;;;;;77.22;36.22;;;7.10;99.90;;;;;;5018969;28;20026;-82
2021/11/15 03:18:25;;;;;;;71.68;34.72;;;7.10;99.90;;;;;;5017181;28;20045;-82
2021/11/15 03:20:55;;;;;;;58.50;25.90;;;7.10;99.90;;;;;;5019812;28;20049;-81
2021/11/15 03:23:25;;;;;;;73.93;32.15;;;7.10;99.90;;;;;;5023720;28;20029;-82
2021/11/15 03:25:51;;;;;;;74.15;32.08;;;7.10;99.90;;;;;;5028377;28;20112;-84
2021/11/15 03:28:20;;;;;;;82.63;35.00;;;7.10;99.90;;;;;;5024130;28;20038;-81
2021/11/15 03:30:50;;;;;;;78.03;32.53;;;7.20;99.90;;;;;;5027252;28;20128;-81
2021/11/15 03:33:16;;;;;;;66.43;31.65;;;7.20;99.90;;;;;;5022305;28;20021;-82
2021/11/15 03:35:41;;;;;;;74.07;32.40;;;7.10;99.90;;;;;;5019138;28;20055;-82
2021/11/15 03:38:08;;;;;;;77.25;32.83;;;7.20;99.90;;;;;;5012381;28;20478;-82
2021/11/15 03:40:34;;;;;;;79.50;31.42;;;7.20;99.90;;;;;;5024251;28;20057;-81
2021/11/15 03:43:05;;;;;;;70.80;31.08;;;7.20;99.90;;;;;;5034317;28;20032;-82
2021/11/15 03:45:31;;;;;;;77.15;31.30;;;7.20;99.90;;;;;;5022472;28;20134;-82
2021/11/15 03:47:57;;;;;;;73.35;31.33;;;7.20;99.90;;;;;;5023021;28;20042;-81
2021/11/15 03:50:24;;;;;;;73.70;34.17;;;7.20;99.90;;;;;;5023149;28;20029;-82
2021/11/15 03:52:51;;;;;;;71.93;31.25;;;7.10;99.90;;;;;;5038084;28;20036;-82
2021/11/15 03:55:19;;;;;;;75.82;31.98;;;7.10;99.90;;;;;;5037202;28;20025;-84
2021/11/15 03:57:45;;;;;;;73.75;31.50;;;7.00;99.90;;;;;;5020113;28;20084;-83
2021/11/15 04:00:15;;;;;;;66.05;30.25;;;7.00;99.90;;;;;;5028900;28;20111;-82
2021/11/15 04:02:41;;;;;;;75.28;32.63;;;7.00;99.90;;;;;;5024111;28;20041;-82
2021/11/15 04:05:09;;;;;;;69.88;31.58;;;7.00;99.90;;;;;;5025839;28;20025;-83
2021/11/15 04:07:39;;;;;;;69.93;32.65;;;7.00;99.90;;;;;;5043943;28;20031;-81
2021/11/15 04:10:22;;;;;;;74.05;31.25;;;7.00;99.90;;;;;;5044459;28;20080;-82
2021/11/15 04:12:48;;;;;;;82.45;31.90;;;7.10;99.90;;;;;;5044164;28;20048;-82
2021/11/15 04:15:14;;;;;;;79.68;32.42;;;7.00;99.90;;;;;;5019262;28;20038;-82
2021/11/15 04:17:44;;;;;;;74.53;32.78;;;7.00;99.90;;;;;;5019363;28;20040;-82
2021/11/15 04:20:13;;;;;;;76.10;31.25;;;7.00;99.90;;;;;;5028735;28;20044;-82
2021/11/15 04:22:39;;;;;;;85.20;33.45;;;7.10;99.90;;;;;;5027118;28;20466;-81
2021/11/15 04:25:07;;;;;;;73.82;32.63;;;7.10;99.90;;;;;;5023438;28;20385;-81
2021/11/15 04:27:33;;;;;;;78.68;32.22;;;7.00;99.90;;;;;;5032924;28;20121;-82
2021/11/15 04:29:59;;;;;;;83.45;31.92;;;7.10;99.90;;;;;;5029281;28;20034;-82
2021/11/15 04:32:24;;;;;;;83.85;33.90;;;7.10;99.90;;;;;;5022976;28;20095;-82
2021/11/15 04:34:51;;;;;;;80.70;32.83;;;7.10;99.90;;;;;;5023479;28;20053;-82
2021/11/15 04:37:17;;;;;;;80.70;33.33;;;7.10;99.90;;;;;;5029725;28;20025;-82
2021/11/15 04:39:42;;;;;;;78.38;31.58;;;7.10;99.90;;;;;;5025844;28;20049;-81
2021/11/15 04:42:08;;;;;;;74.15;30.98;;;7.10;99.90;;;;;;5024796;28;20038;-81
2021/11/15 04:44:33;;;;;;;78.30;33.28;;;7.10;99.90;;;;;;5033115;28;20025;-81
2021/11/15 04:46:59;;;;;;;79.00;33.67;;;7.10;99.90;;;;;;5039453;28;20490;-81
2021/11/15 04:49:24;;;;;;;74.55;30.63;;;7.10;99.90;;;;;;5025119;28;20063;-82
2021/11/15 04:51:51;;;;;;;76.35;31.52;;;7.10;99.90;;;;;;5027125;28;20041;-81
2021/11/15 04:54:17;;;;;;;79.43;31.90;;;7.10;99.90;;;;;;5029736;28;20021;-82
2021/11/15 04:56:43;;;;;;;72.72;30.70;;;7.10;99.90;;;;;;5028377;28;20026;-82
2021/11/15 04:59:08;;;;;;;74.78;31.63;;;7.00;99.90;;;;;;5017141;28;20030;-82
2021/11/15 05:01:34;;;;;;;71.05;31.90;;;7.00;99.90;;;;;;5020128;28;20471;-82
2021/11/15 05:04:00;;;;;;;79.40;32.47;;;7.00;99.90;;;;;;5031567;28;20037;-82
2021/11/15 05:06:25;;;;;;;82.90;33.17;;;7.10;99.90;;;;;;5029281;28;20096;-82
2021/11/15 05:08:51;;;;;;;70.45;31.50;;;7.10;99.90;;;;;;5032826;28;20102;-82
2021/11/15 05:11:16;;;;;;;80.45;32.53;;;7.10;99.90;;;;;;5031139;28;20729;-82
2021/11/15 05:13:42;;;;;;;77.43;33.13;;;7.10;99.90;;;;;;5019381;28;20588;-82
2021/11/15 05:16:07;;;;;;;81.13;32.35;;;7.10;99.90;;;;;;5030441;28;20022;-82
2021/11/15 05:18:33;;;;;;;80.97;30.52;;;7.10;99.90;;;;;;5026638;28;20026;-82
2021/11/15 05:20:58;;;;;;;69.15;29.48;;;7.10;99.90;;;;;;5021765;28;20498;-82
2021/11/15 05:23:25;;;;;;;77.70;33.63;;;7.10;99.90;;;;;;5019729;28;20052;-82
2021/11/15 05:25:51;;;;;;;77.03;32.58;;;7.10;99.90;;;;;;5030921;28;20030;-82
2021/11/15 05:28:16;;;;;;;67.93;30.25;;;7.10;99.90;;;;;;5024635;28;20044;-83
2021/11/15 05:30:42;;;;;;;71.25;30.65;;;7.10;99.90;;;;;;5031920;28;20398;-84
2021/11/15 05:33:07;;;;;;;70.82;28.80;;;7.10;99.90;;;;;;5025248;28;20037;-83
2021/11/15 05:35:33;;;;;;;76.60;30.00;;;7.10;99.90;;;;;;5029056;28;20033;-81
2021/11/15 05:37:59;;;;;;;64.82;29.80;;;7.10;99.90;;;;;;5018404;28;20045;-81
2021/11/15 05:40:26;;;;;;;67.20;30.17;;;7.10;99.90;;;;;;5019824;28;20113;-83
2021/11/15 05:42:53;;;;;;;80.40;31.67;;;7.10;99.90;;;;;;5022946;28;20056;-83
2021/11/15 05:45:20;;;;;;;75.20;32.83;;;7.20;99.90;;;;;;5022516;28;20075;-84
2021/11/15 05:47:46;;;;;;;75.47;29.90;;;7.20;99.90;;;;;;5013533;28;20034;-81
2021/11/15 05:50:13;;;;;;;65.82;30.70;;;7.20;99.90;;;;;;5021450;28;20025;-81
2021/11/15 05:52:42;;;;;;;69.70;31.42;;;7.20;99.90;;;;;;5024129;28;20030;-83
2021/11/15 05:55:10;;;;;;;69.93;31.70;;;7.20;99.90;;;;;;5025730;28;20112;-82
2021/11/15 05:57:37;;;;;;;63.30;29.65;;;7.20;99.90;;;;;;5013451;28;20038;-81
2021/11/15 06:00:09;;;;;;;69.05;29.63;;;7.10;99.90;;;;;;5024713;28;20076;-82
2021/11/15 06:02:34;;;;;;;54.58;23.13;;;7.10;99.90;;;;;;5028015;28;20029;-82
2021/11/15 06:05:00;;;;;;;62.97;29.83;;;7.00;99.90;;;;;;5023862;28;20148;-82
2021/11/15 06:07:25;;;;;;;63.28;30.20;;;7.00;99.90;;;;;;5020440;28;20461;-81
2021/11/15 06:09:51;;;;;;;71.07;30.88;;;7.00;99.90;;;;;;5022265;28;20061;-83
2021/11/15 06:12:17;;;;;;;61.72;28.70;;;7.00;99.90;;;;;;5009296;28;20042;-83
2021/11/15 06:14:42;;;;;;;60.05;28.42;;;7.00;99.90;;;;;;5009607;28;20026;-83
2021/11/15 06:17:08;;;;;;;63.72;30.33;;;7.00;99.90;;;;;;5009379;28;20030;-82
2021/11/15 06:19:33;;;;;;;60.75;27.80;;;7.00;99.90;;;;;;5009834;28;20160;-82
2021/11/15 06:22:00;;;;;;;60.70;27.45;;;7.10;99.90;;;;;;5010140;28;20030;-83
2021/11/15 06:24:26;;;;;;;63.53;27.80;;;7.10;99.90;;;;;;5010961;28;20750;-82
2021/11/15 06:26:51;;;;;;;60.65;29.58;;;7.10;99.90;;;;;;5011146;28;20108;-84
2021/11/15 06:29:17;;;;;;;64.53;29.48;;;7.10;99.90;;;;;;5020814;28;20041;-83
2021/11/15 06:31:42;;;;;;;61.92;27.63;;;7.10;99.90;;;;;;5026312;28;20099;-83
2021/11/15 06:34:08;;;;;;;63.42;30.05;;;7.10;99.90;;;;;;5026458;28;20136;-81
2021/11/15 06:36:34;;;;;;;65.82;31.80;;;7.00;99.90;;;;;;5018664;28;20156;-81
2021/11/15 06:38:59;;;;;;;63.00;28.40;;;7.00;99.90;;;;;;5024015;28;20033;-83
2021/11/15 06:41:25;;;;;;;66.95;29.25;;;6.90;99.90;;;;;;5012843;28;20034;-83
2021/11/15 06:43:51;;;;;;;67.05;29.95;;;6.90;99.90;;;;;;5024142;28;20049;-83
2021/11/15 06:46:16;;;;;;;56.03;28.40;;;6.90;99.90;;;;;;5022746;28;20025;-83
2021/11/15 06:48:43;;;;;;;69.35;28.60;;;7.00;99.90;;;;;;5029535;28;20043;-83
2021/11/15 06:51:10;;;;;;;66.53;29.40;;;7.00;99.90;;;;;;5009327;28;20073;-83
2021/11/15 06:53:36;;;;;;;63.75;29.83;;;7.00;99.90;;;;;;5010473;28;20022;-83
2021/11/15 06:56:03;;;;;;;61.40;30.65;;;7.00;99.90;;;;;;5007725;28;20092;-83
2021/11/15 06:58:29;;;;;;;66.63;28.88;;;6.90;99.90;;;;;;5016391;28;20022;-82
2021/11/15 07:00:55;;;;;;;68.70;30.27;;;6.80;99.90;;;;;;5028282;28;20030;-81
2021/11/15 07:03:21;;;;;;;61.47;29.42;;;6.80;99.90;;;;;;5026033;28;20029;-81
2021/11/15 07:05:47;;;;;;;63.90;29.10;;;6.80;99.90;;;;;;5012721;28;20033;-82
2021/11/15 07:08:13;;;;;;;65.60;30.00;;;6.80;99.90;;;;;;5009083;28;20026;-81
2021/11/15 07:10:39;;;;;;;66.63;29.75;;;6.80;99.90;;;;;;5017189;28;20025;-82
2021/11/15 07:13:05;;;;;;;65.53;29.45;;;6.80;99.90;;;;;;5028866;28;20040;-81
2021/11/15 07:15:30;;;;;;;57.50;28.27;;;6.80;99.90;;;;;;5028865;28;20029;-81
2021/11/15 07:17:56;;;;;;;64.95;30.52;;;6.80;99.90;;;;;;5028832;28;20531;-81
2021/11/15 07:20:22;;;;;;;59.75;28.35;;;6.80;99.90;;;;;;5028855;28;20056;-81
2021/11/15 07:22:48;;;;;;;68.75;30.13;;;6.90;99.90;;;;;;5039564;28;20114;-81
2021/11/15 07:25:18;;;;;;;61.65;29.42;;;6.90;99.90;;;;;;5019863;28;20463;-81
2021/11/15 07:27:48;;;;;;;63.40;29.30;;;6.90;99.90;;;;;;5015449;28;20026;-82
2021/11/15 07:30:14;;;;;;;58.00;27.83;;;6.90;99.90;;;;;;5010811;28;20033;-81
2021/11/15 07:32:40;;;;;;;70.47;29.02;;;6.90;99.90;;;;;;5033326;28;20487;-81
2021/11/15 07:35:06;;;;;;;61.72;28.38;;;6.80;99.90;;;;;;5025950;28;20034;-81
2021/11/15 07:37:32;;;;;;;62.42;29.17;;;6.90;99.90;;;;;;5034950;28;20124;-82
2021/11/15 07:39:58;;;;;;;63.67;28.85;;;6.90;99.90;;;;;;5027139;28;20033;-82
2021/11/15 07:42:23;;;;;;;51.13;26.17;;;7.00;99.90;;;;;;5033711;28;20029;-83
2021/11/15 07:44:49;;;;;;;50.97;25.45;;;7.00;99.90;;;;;;5026738;28;20029;-82
2021/11/15 07:47:15;;;;;;;58.55;24.30;;;7.10;99.90;;;;;;5029310;28;20025;-83
2021/11/15 07:49:43;;;;;;;49.88;24.80;;;7.10;99.90;;;;;;5026392;28;20088;-83
2021/11/15 07:52:08;;;;;;;53.38;24.63;;;7.10;99.90;;;;;;5028904;28;20091;-82
2021/11/15 07:54:34;;;;;;;53.13;25.15;;;7.20;99.90;;;;;;5014191;28;20029;-83
2021/11/15 07:57:00;;;;;;;52.08;24.15;;;7.20;99.90;;;;;;5022059;28;20363;-83
2021/11/15 07:59:26;;;;;;;51.58;26.83;;;7.20;99.90;;;;;;5018551;28;20553;-84
2021/11/15 08:01:52;;;;;;;49.45;24.70;;;7.20;99.90;;;;;;5031703;28;20033;-82
2021/11/15 08:04:18;;;;;;;48.45;23.20;;;7.20;99.90;;;;;;5031716;28;20025;-82
2021/11/15 08:06:44;;;;;;;49.47;23.38;;;7.30;99.90;;;;;;5016153;28;20463;-83
2021/11/15 08:09:09;;;;;;;47.17;23.38;;;7.30;99.90;;;;;;5025681;28;20045;-82
2021/11/15 08:11:36;;;;;;;49.47;24.85;;;7.30;99.90;;;;;;5018415;28;20097;-83
2021/11/15 08:14:01;;;;;;;46.50;22.67;;;7.40;99.90;;;;;;5033840;28;20033;-82
2021/11/15 08:16:28;;;;;;;43.80;22.75;;;7.40;99.90;;;;;;5033541;28;20040;-82
2021/11/15 08:18:54;;;;;;;46.70;22.77;;;7.40;99.90;;;;;;5031368;28;20067;-82
2021/11/15 08:21:21;;;;;;;51.28;24.02;;;7.40;99.90;;;;;;5031485;28;20470;-82
2021/11/15 08:23:48;;;;;;;43.67;21.77;;;7.40;99.90;;;;;;5032242;28;20418;-82
2021/11/15 08:26:36;;;;;;;41.17;21.17;;;7.40;99.90;;;;;;5030333;28;20536;-83
2021/11/15 08:29:08;;;;;;;42.63;21.15;;;7.40;99.90;;;;;;5031082;28;20043;-82
2021/11/15 08:31:34;;;;;;;46.00;21.30;;;7.40;99.90;;;;;;5022395;28;20037;-83
2021/11/15 08:34:00;;;;;;;39.40;20.23;;;7.40;99.90;;;;;;5032003;28;20475;-82
2021/11/15 08:36:27;;;;;;;42.85;21.63;;;7.40;99.90;;;;;;5011218;28;20064;-84
2021/11/15 08:39:04;;;;;;;43.58;22.80;;;7.40;99.90;;;;;;5016573;28;20037;-83
2021/11/15 08:41:33;;;;;;;40.67;22.33;;;7.50;99.90;;;;;;5027071;28;20037;-83
2021/11/15 08:44:02;;;;;;;40.45;21.65;;;7.50;99.90;;;;;;5031682;28;20090;-81
2021/11/15 08:46:29;;;;;;;39.90;20.30;;;7.60;99.90;;;;;;5021284;28;20037;-83
2021/11/15 08:48:57;;;;;;;44.13;21.50;;;7.60;99.80;;;;;;5028816;28;20517;-82
2021/11/15 08:51:24;;;;;;;38.35;20.92;;;7.60;99.90;;;;;;5030431;28;20034;-80
2021/11/15 08:53:56;;;;;;;38.83;19.95;;;7.60;99.90;;;;;;5031054;28;20490;-80
2021/11/15 08:56:21;;;;;;;29.25;14.85;;;7.60;99.90;;;;;;5023849;28;20507;-80
2021/11/15 08:58:47;;;;;;;46.63;22.98;;;7.50;99.90;;;;;;5045051;28;20062;-80
2021/11/15 09:01:15;;;;;;;36.30;20.42;;;7.50;99.90;;;;;;5023457;28;20493;-80
2021/11/15 09:03:42;;;;;;;37.80;20.52;;;7.60;99.90;;;;;;5015812;28;20026;-83
2021/11/15 09:06:09;;;;;;;33.92;18.80;;;7.60;99.80;;;;;;5031538;28;20734;-82
2021/11/15 09:08:37;;;;;;;38.08;19.77;;;7.60;99.70;;;;;;5030884;28;20025;-81
2021/11/15 09:11:03;;;;;;;44.13;19.92;;;7.60;99.60;;;;;;5030617;28;20136;-82
2021/11/15 09:13:29;;;;;;;38.60;20.83;;;7.60;99.50;;;;;;5030984;28;20084;-81
2021/11/15 09:15:54;;;;;;;35.67;19.25;;;7.70;99.40;;;;;;5031208;28;20029;-83
2021/11/15 09:18:20;;;;;;;37.95;20.25;;;7.70;99.60;;;;;;5028886;28;20025;-81
2021/11/15 09:20:45;;;;;;;42.60;20.10;;;7.70;99.60;;;;;;5030636;28;20052;-81
2021/11/15 09:23:11;;;;;;;41.35;19.33;;;7.70;99.10;;;;;;5031436;28;20041;-81
2021/11/15 09:25:39;;;;;;;37.10;20.10;;;7.70;99.20;;;;;;5030913;28;20057;-81
2021/11/15 09:28:05;;;;;;;37.65;20.60;;;7.80;99.10;;;;;;5030706;28;20036;-80
2021/11/15 09:30:30;;;;;;;38.97;21.15;;;7.80;99.30;;;;;;5030669;28;20041;-81
2021/11/15 09:32:56;;;;;;;36.95;19.08;;;7.80;99.20;;;;;;5029011;28;20037;-80
2021/11/15 09:35:22;;;;;;;37.75;20.75;;;7.80;99.00;;;;;;5030693;28;20467;-81
2021/11/15 09:37:47;;;;;;;37.13;19.63;;;7.70;98.90;;;;;;5028385;28;20037;-82
2021/11/15 09:40:14;;;;;;;37.65;18.75;;;7.70;99.10;;;;;;5031168;28;20100;-83
2021/11/15 09:42:40;;;;;;;38.33;20.13;;;7.70;99.10;;;;;;5030390;28;20045;-81
2021/11/15 09:45:07;;;;;;;36.55;18.88;;;7.70;99.40;;;;;;5031296;28;20029;-82
2021/11/15 09:47:40;;;;;;;40.55;21.25;;;7.70;99.50;;;;;;5040462;28;20377;-82
2021/11/15 09:50:08;;;;;;;36.17;19.35;;;7.80;99.30;;;;;;5034055;28;20032;-82
2021/11/15 09:52:34;;;;;;;37.80;20.67;;;7.80;99.10;;;;;;5025902;28;20025;-81
2021/11/15 09:55:01;;;;;;;33.47;18.15;;;7.90;99.00;;;;;;5020322;28;20096;-82
2021/11/15 09:57:27;;;;;;;35.72;18.13;;;7.80;98.80;;;;;;5029103;28;20104;-81
2021/11/15 09:59:53;;;;;;;36.85;19.80;;;7.80;98.80;;;;;;5029422;28;20108;-81
2021/11/15 10:02:18;;;;;;;38.05;19.77;;;7.90;99.00;;;;;;5028472;28;20075;-81
2021/11/15 10:04:44;;;;;;;39.92;20.27;;;7.80;98.90;;;;;;5030330;28;20048;-82
2021/11/15 10:07:10;;;;;;;44.17;22.15;;;7.80;98.80;;;;;;5028209;28;20029;-81
2021/11/15 10:09:38;;;;;;;43.00;21.75;;;7.80;98.90;;;;;;5018036;28;20091;-81
2021/11/15 10:12:13;;;;;;;41.25;20.13;;;7.80;98.70;;;;;;5028756;28;20033;-82
2021/11/15 10:14:58;;;;;;;33.10;18.30;;;7.80;98.80;;;;;;5029299;28;20017;-82
2021/11/15 10:17:42;;;;;;;36.15;19.17;;;7.80;98.90;;;;;;5034287;28;20108;-82
2021/11/15 10:20:08;;;;;;;37.10;19.45;;;7.90;98.80;;;;;;5028664;28;20706;-83
2021/11/15 10:22:34;;;;;;;38.80;20.20;;;7.90;98.80;;;;;;5029660;28;20087;-82
2021/11/15 10:24:59;;;;;;;36.03;19.45;;;8.00;98.90;;;;;;5029804;28;20065;-81
2021/11/15 10:27:28;;;;;;;37.95;20.30;;;8.00;98.60;;;;;;5026918;28;20036;-82
2021/11/15 10:29:53;;;;;;;32.30;18.90;;;8.00;98.80;;;;;;5049945;28;20040;-82
2021/11/15 10:32:28;;;;;;;38.92;19.65;;;8.00;98.80;;;;;;5030292;28;20041;-82
2021/11/15 10:35:00;;;;;;;38.92;20.42;;;8.00;99.00;;;;;;5013825;28;20041;-83
2021/11/15 10:37:28;;;;;;;39.25;20.05;;;8.10;98.40;;;;;;5025664;28;20064;-83
2021/11/15 10:39:57;;;;;;;43.42;21.27;;;8.20;98.40;;;;;;5039218;28;20057;-83
2021/11/15 10:42:30;;;;;;;35.53;19.77;;;8.20;98.50;;;;;;5037059;28;20037;-81
2021/11/15 10:45:00;;;;;;;;;;;8.20;98.50;;;;;;5026507;28;20040;-81
2021/11/15 10:47:34;;;;;;;41.58;20.17;;;8.20;98.20;;;;;;5030514;28;19924;-81
2021/11/15 10:50:42;;;;;;;38.25;19.77;;;8.20;98.10;;;;;;5037749;28;20033;-81
2021/11/15 10:53:24;;;;;;;35.60;19.08;;;8.20;98.10;;;;;;5011958;28;20029;-82
2021/11/15 10:56:41;;;;;;;26.00;13.77;;;8.20;98.30;;;;;;5036017;28;20017;-83
2021/11/15 10:59:13;;;;;;;34.35;19.63;;;8.10;98.20;;;;;;5012882;28;20033;-80
2021/11/15 11:01:39;;;;;;;38.45;21.13;;;8.10;98.60;;;;;;4999147;28;20096;-82
2021/11/15 11:04:11;;;;;;;39.50;19.83;;;8.10;98.60;;;;;;5016707;28;20033;-81
2021/11/15 11:07:02;;;;;;;37.53;21.15;;;8.10;98.60;;;;;;5037326;28;20033;-81
2021/11/15 11:09:40;;;;;;;41.25;19.60;;;8.10;98.30;;;;;;5042325;28;20485;-82
2021/11/15 11:12:16;;;;;;;41.97;20.08;;;8.20;98.30;;;;;;5033411;28;20456;-82
2021/11/15 11:14:44;;;;;;;41.40;19.48;;;8.20;98.00;;;;;;5022246;28;20064;-81
2021/11/15 11:17:09;;;;;;;36.38;20.30;;;8.20;98.00;;;;;;5033747;28;20032;-81
2021/11/15 11:20:11;;;;;;;41.67;20.40;;;8.20;98.20;;;;;;5031694;28;20030;-81
2021/11/15 11:22:59;;;;;;;41.38;19.63;;;8.20;98.00;;;;;;5038058;28;20087;-82
2021/11/15 11:25:25;;;;;;;35.80;20.15;;;8.10;98.10;;;;;;5034485;28;20025;-82
2021/11/15 11:27:50;;;;;;;37.85;20.45;;;8.20;98.20;;;;;;5031660;28;20124;-81
2021/11/15 11:30:16;;;;;;;42.13;21.92;;;8.20;98.40;;;;;;5033579;28;20452;-82
2021/11/15 11:32:42;;;;;;;39.00;20.45;;;8.20;98.40;;;;;;5038916;28;20489;-82
2021/11/15 11:35:07;;;;;;;36.25;19.90;;;8.30;98.40;;;;;;5038980;28;20033;-81
2021/11/15 11:37:34;;;;;;;40.17;20.30;;;8.30;98.10;;;;;;5032054;28;20113;-82
2021/11/15 11:40:05;;;;;;;38.08;19.52;;;8.40;97.60;;;;;;5032419;28;20041;-82
2021/11/15 11:42:30;;;;;;;41.30;21.23;;;8.40;97.90;;;;;;5037959;28;20029;-82
2021/11/15 11:44:58;;;;;;;36.33;19.90;;;8.30;97.60;;;;;;5025936;28;20036;-83
2021/11/15 11:47:27;;;;;;;36.13;19.35;;;8.40;98.20;;;;;;5034309;28;20103;-82
2021/11/15 11:49:55;;;;;;;37.47;20.08;;;8.50;98.00;;;;;;5038741;28;20037;-83
2021/11/15 11:52:29;;;;;;;39.03;19.98;;;8.50;97.90;;;;;;5039765;28;20095;-83
2021/11/15 11:54:55;;;;;;;39.30;19.30;;;8.50;97.80;;;;;;5038324;28;20033;-83
2021/11/15 11:57:31;;;;;;;39.53;21.33;;;8.50;97.50;;;;;;5037337;28;20029;-82
2021/11/15 12:00:12;;;;;;;41.42;20.90;;;8.50;97.80;;;;;;5031406;28;20398;-82
2021/11/15 12:02:39;;;;;;;34.58;19.73;;;8.50;98.20;;;;;;5023183;28;20029;-82
2021/11/15 12:05:14;;;;;;;42.10;21.05;;;8.50;97.50;;;;;;5034419;28;20037;-81
2021/11/15 12:07:51;;;;;;;38.15;20.02;;;8.60;97.60;;;;;;5028747;28;20029;-81
2021/11/15 12:10:43;;;;;;;42.20;20.33;;;8.60;97.40;;;;;;5032801;28;20470;-82
2021/11/15 12:13:14;;;;;;;36.55;19.70;;;8.70;97.50;;;;;;5033011;28;20140;-81
2021/11/15 12:15:55;;;;;;;38.25;19.23;;;8.70;97.40;;;;;;5038293;28;20032;-82
2021/11/15 12:18:32;;;;;;;38.95;19.30;;;8.60;97.20;;;;;;5046173;28;20025;-82
2021/11/15 12:21:04;;;;;;;41.95;20.33;;;8.60;97.30;;;;;;5046921;28;20040;-81
2021/11/15 12:24:06;;;;;;;42.77;20.80;;;8.50;97.10;;;;;;5032614;28;20029;-82
2021/11/15 12:26:47;;;;;;;37.35;19.35;;;8.50;97.60;;;;;;5015000;28;20041;-82
2021/11/15 12:29:22;;;;;;;39.00;19.77;;;8.50;97.50;;;;;;5027875;28;20029;-82
2021/11/15 12:31:51;;;;;;;39.50;20.48;;;8.40;97.50;;;;;;5038302;28;20044;-82
2021/11/15 12:34:22;;;;;;;38.10;20.92;;;8.50;97.90;;;;;;5022676;28;20390;-82
2021/11/15 12:36:51;;;;;;;40.92;20.17;;;8.40;97.20;;;;;;5039275;28;20425;-82
2021/11/15 12:39:19;;;;;;;42.50;21.48;;;8.30;97.40;;;;;;5037265;28;20450;-83
2021/11/15 12:41:56;;;;;;;35.58;19.95;;;8.30;97.60;;;;;;5041259;28;20021;-82